Terminal Aerodrome Forecast
Issued by NWS Charleston, WV

Current Version | Previous Version | Graphics & Text | Print | Product List | Glossary On
Versions: 1 2 3 4 5 6 7 8 9 10 11 12 13 14 15 16 17 18 19 20 21 22 23 24 25
000
FTUS41 KRLX 291907 AAA
TAFHTS
TAF AMD
KHTS 291907Z 2919/3018 21007KT P6SM SKC
     FM292300 VRB03KT P6SM FEW140
     FM300500 VRB03KT P6SM BKN110
     FM301100 20006KT P6SM OVC045
     FM301400 22007KT 4SM SHRA OVC030
     FM301500 23007KT 2SM SHRA OVC025
     FM301600 24007KT 3SM SHRA OVC030
     FM301700 24007KT P6SM BKN025=

USA.gov is the U.S. government's official web portal to all federal, state and local government web resources and services.